createdAt,value
2023-07-09T00:01:47.340Z,101672.28
2023-07-09T00:04:15.458Z,101685.47
2023-07-09T00:06:42.599Z,101680.88
2023-07-09T00:09:14.550Z,101676.44
2023-07-09T00:11:41.886Z,101678.56
2023-07-09T00:14:10.118Z,101677.72
2023-07-09T00:16:37.162Z,101667.03
2023-07-09T00:19:04.040Z,101684.22
2023-07-09T00:21:32.001Z,101683.16
2023-07-09T00:23:58.565Z,101683.81
2023-07-09T00:26:25.321Z,101679.41
2023-07-09T00:28:51.921Z,101684.00
2023-07-09T00:31:18.588Z,101682.75
2023-07-09T00:33:45.948Z,101677.28
2023-07-09T00:36:16.198Z,101680.00
2023-07-09T00:38:44.186Z,101683.56
2023-07-09T00:41:15.865Z,101682.75
2023-07-09T00:43:42.424Z,101677.50
2023-07-09T00:46:37.113Z,101676.44
2023-07-09T00:49:08.140Z,101671.41
2023-07-09T00:51:39.400Z,101675.41
2023-07-09T00:54:13.556Z,101678.13
2023-07-09T00:56:43.464Z,101674.34
2023-07-09T00:59:16.142Z,101677.44
2023-07-09T01:01:42.856Z,101676.63
2023-07-09T01:04:11.759Z,101668.44
2023-07-09T01:06:43.359Z,101672.66
2023-07-09T01:09:09.961Z,101665.75
2023-07-09T01:11:36.741Z,101666.81
2023-07-09T01:14:07.103Z,101664.09
2023-07-09T01:16:37.876Z,101656.53
2023-07-09T01:19:05.182Z,101661.50
2023-07-09T01:21:35.297Z,101659.00
2023-07-09T01:24:13.530Z,101665.03
2023-07-09T01:26:40.107Z,101656.25
2023-07-09T01:29:08.351Z,101656.66
2023-07-09T01:31:35.072Z,101658.31
2023-07-09T01:34:03.120Z,101659.13
2023-07-09T01:36:29.800Z,101661.56
2023-07-09T01:38:58.218Z,101658.69
2023-07-09T01:41:24.814Z,101659.47
2023-07-09T01:43:52.041Z,101664.47
2023-07-09T01:46:18.636Z,101662.38
2023-07-09T01:48:45.197Z,101666.53
2023-07-09T01:51:16.279Z,101665.34
2023-07-09T01:53:44.597Z,101671.50
2023-07-09T01:56:12.568Z,101668.84
2023-07-09T01:58:39.316Z,101665.41
2023-07-09T02:01:05.942Z,101668.38
2023-07-09T02:03:33.852Z,101667.03
2023-07-09T02:06:00.707Z,101668.34
2023-07-09T02:08:27.523Z,101662.31
2023-07-09T02:10:54.949Z,101670.53
2023-07-09T02:13:22.877Z,101676.94
2023-07-09T02:15:49.955Z,101661.16
2023-07-09T02:18:16.558Z,101658.66
2023-07-09T02:20:43.130Z,101664.72
2023-07-09T02:23:09.898Z,101655.97
2023-07-09T02:25:36.477Z,101646.59
2023-07-09T02:28:03.098Z,101657.38
2023-07-09T02:30:31.450Z,101646.84
2023-07-09T02:32:58.042Z,101650.41
2023-07-09T02:35:24.782Z,101650.84
2023-07-09T02:37:51.395Z,101655.41
2023-07-09T02:40:18.059Z,101649.41
2023-07-09T02:42:44.667Z,101653.41
2023-07-09T02:45:11.943Z,101655.03
2023-07-09T02:47:40.329Z,101645.97
2023-07-09T02:50:07.987Z,101652.78
2023-07-09T02:52:34.600Z,101646.69
2023-07-09T02:55:01.178Z,101659.56
2023-07-09T02:57:27.774Z,101654.75
2023-07-09T02:59:54.409Z,101661.94
2023-07-09T03:02:21.388Z,101647.25
2023-07-09T03:04:49.478Z,101642.22
2023-07-09T03:07:16.133Z,101643.78
2023-07-09T03:09:42.820Z,101650.63
2023-07-09T03:12:10.029Z,101646.84
2023-07-09T03:14:36.688Z,101650.69
2023-07-09T03:17:03.773Z,101652.34
2023-07-09T03:19:30.481Z,101655.91
2023-07-09T03:21:58.433Z,101655.91
2023-07-09T03:24:25.018Z,101646.94
2023-07-09T03:26:51.645Z,101647.34
2023-07-09T03:29:18.244Z,101650.19
2023-07-09T03:31:44.886Z,101648.47
2023-07-09T03:34:11.891Z,101646.34
2023-07-09T03:36:38.594Z,101649.75
2023-07-09T03:39:06.956Z,101655.41
2023-07-09T03:41:33.943Z,101649.13
2023-07-09T03:44:00.949Z,101646.03
2023-07-09T03:46:27.598Z,101651.25
2023-07-09T03:48:54.280Z,101646.47
2023-07-09T03:51:21.022Z,101655.03
2023-07-09T03:53:47.597Z,101656.34
2023-07-09T03:56:15.532Z,101656.88
2023-07-09T03:58:42.108Z,101660.22
2023-07-09T04:01:08.714Z,101653.97
2023-07-09T04:03:35.397Z,101657.72
2023-07-09T04:06:02.316Z,101643.53
2023-07-09T04:08:29.294Z,101655.06
2023-07-09T04:10:59.795Z,101647.81
2023-07-09T04:13:27.929Z,101652.63
2023-07-09T04:15:54.597Z,101653.56
2023-07-09T04:18:21.263Z,101647.91
2023-07-09T04:20:49.295Z,101640.09
2023-07-09T04:23:15.953Z,101646.47
2023-07-09T04:25:42.583Z,101647.75
2023-07-09T04:28:09.461Z,101654.41
2023-07-09T04:30:37.472Z,101654.00
2023-07-09T04:33:04.266Z,101651.41
2023-07-09T04:35:30.877Z,101657.09
2023-07-09T04:37:57.433Z,101658.81
2023-07-09T04:40:23.996Z,101667.91
2023-07-09T04:42:50.553Z,101662.44
2023-07-09T04:45:17.244Z,101661.44
2023-07-09T04:47:45.211Z,101661.66
2023-07-09T04:50:12.528Z,101661.44
2023-07-09T04:52:39.175Z,101655.44
2023-07-09T04:55:06.714Z,101656.88
2023-07-09T04:57:33.269Z,101667.13
2023-07-09T04:59:59.894Z,101663.59
2023-07-09T05:02:26.501Z,101665.56
2023-07-09T05:04:54.541Z,101663.06
2023-07-09T05:07:21.117Z,101667.03
2023-07-09T05:09:47.780Z,101676.03
2023-07-09T05:12:14.728Z,101676.69
2023-07-09T05:14:41.361Z,101681.91
2023-07-09T05:17:08.826Z,101670.78
2023-07-09T05:19:36.216Z,101665.16
2023-07-09T05:22:04.751Z,101672.28
2023-07-09T05:24:31.405Z,101666.00
2023-07-09T05:26:57.985Z,101674.38
2023-07-09T05:29:26.247Z,101672.66
2023-07-09T05:31:52.932Z,101665.75
2023-07-09T05:34:19.581Z,101663.25
2023-07-09T05:36:46.170Z,101661.75
2023-07-09T05:39:16.966Z,101666.38
2023-07-09T05:41:43.617Z,101660.72
2023-07-09T05:44:10.224Z,101672.81
2023-07-09T05:46:37.969Z,101665.88
2023-07-09T05:49:05.321Z,101672.34
2023-07-09T05:51:31.973Z,101667.03
2023-07-09T05:53:58.739Z,101672.09
2023-07-09T05:56:26.697Z,101666.59
2023-07-09T05:58:53.303Z,101677.88
2023-07-09T06:01:19.890Z,101681.16
2023-07-09T06:03:46.973Z,101673.00
2023-07-09T06:06:13.689Z,101672.75
2023-07-09T06:08:40.508Z,101674.31
2023-07-09T06:11:07.088Z,101674.03
2023-07-09T06:13:35.112Z,101680.84
2023-07-09T06:16:02.669Z,101684.75
2023-07-09T06:18:29.806Z,101687.00
2023-07-09T06:20:58.792Z,101665.63
2023-07-09T06:23:25.479Z,101669.13
2023-07-09T06:25:52.635Z,101676.16
2023-07-09T06:28:21.428Z,101673.09
2023-07-09T06:30:49.832Z,101680.22
2023-07-09T06:33:17.940Z,101684.81
2023-07-09T06:35:47.634Z,101682.16
2023-07-09T06:38:14.207Z,101679.75
2023-07-09T06:40:40.790Z,101687.63
2023-07-09T06:43:07.487Z,101690.56
2023-07-09T06:45:38.383Z,101687.34
2023-07-09T06:48:06.995Z,101702.59
2023-07-09T06:50:34.717Z,101696.75
2023-07-09T06:53:01.290Z,101702.88
2023-07-09T06:55:27.979Z,101700.25
2023-07-09T06:57:54.565Z,101703.53
2023-07-09T07:00:21.268Z,101702.94
2023-07-09T07:02:48.007Z,101705.00
2023-07-09T07:05:16.157Z,101695.75
2023-07-09T07:07:42.738Z,101702.81
2023-07-09T07:10:10.091Z,101705.03
2023-07-09T07:12:43.722Z,101709.31
2023-07-09T07:15:11.876Z,101708.84
2023-07-09T07:17:38.461Z,101700.72
2023-07-09T07:20:06.109Z,101707.88
2023-07-09T07:22:34.163Z,101705.50
2023-07-09T07:25:00.878Z,101708.38
2023-07-09T07:27:27.493Z,101710.00
2023-07-09T07:29:54.048Z,101709.53
2023-07-09T07:32:20.660Z,101711.09
2023-07-09T07:34:47.730Z,101705.03
2023-07-09T07:37:14.672Z,101702.84
2023-07-09T07:39:43.064Z,101706.19
2023-07-09T07:42:09.710Z,101707.63
2023-07-09T07:44:36.467Z,101706.63
2023-07-09T07:47:03.283Z,101698.84
2023-07-09T07:49:29.858Z,101703.72
2023-07-09T07:51:56.448Z,101706.56
2023-07-09T07:54:23.173Z,101705.63
2023-07-09T07:56:51.100Z,101703.97
2023-07-09T07:59:18.431Z,101707.50
2023-07-09T08:01:45.055Z,101713.00
2023-07-09T08:04:11.760Z,101704.97
2023-07-09T08:06:38.380Z,101711.44
2023-07-09T08:09:04.959Z,101710.47
2023-07-09T08:11:31.620Z,101708.63
2023-07-09T08:13:59.612Z,101708.22
2023-07-09T08:16:26.330Z,101701.91
2023-07-09T08:18:53.261Z,101701.66
2023-07-09T08:21:19.988Z,101704.00
2023-07-09T08:23:47.068Z,101710.00
2023-07-09T08:26:13.638Z,101707.16
2023-07-09T08:28:40.285Z,101702.78
2023-07-09T08:31:09.265Z,101704.78
2023-07-09T08:33:35.940Z,101699.59
2023-07-09T08:36:02.851Z,101704.50
2023-07-09T08:38:29.444Z,101698.53
2023-07-09T08:40:59.655Z,101705.97
2023-07-09T08:43:35.302Z,101702.94
2023-07-09T08:46:08.635Z,101694.72
2023-07-09T08:48:39.789Z,101699.03
2023-07-09T08:51:14.397Z,101694.91
2023-07-09T08:53:49.630Z,101690.81
2023-07-09T08:56:18.099Z,101688.06
2023-07-09T08:58:46.785Z,101701.13
2023-07-09T09:01:17.948Z,101693.72
2023-07-09T09:03:48.601Z,101694.19
2023-07-09T09:06:17.284Z,101701.13
2023-07-09T09:08:55.398Z,101696.25
2023-07-09T09:11:27.376Z,101689.81
2023-07-09T09:13:59.301Z,101690.34
2023-07-09T09:16:40.387Z,101686.31
2023-07-09T09:19:19.411Z,101698.72
2023-07-09T09:21:46.377Z,101690.56
2023-07-09T09:24:27.403Z,101701.22
2023-07-09T09:26:57.579Z,101698.63
2023-07-09T09:29:25.333Z,101704.31
2023-07-09T09:31:55.792Z,101699.81
2023-07-09T09:34:25.341Z,101696.03
2023-07-09T09:36:51.923Z,101694.31
2023-07-09T09:39:18.976Z,101696.59
2023-07-09T09:41:46.535Z,101698.81
2023-07-09T09:44:19.938Z,101692.41
2023-07-09T09:46:48.405Z,101683.41
2023-07-09T09:49:16.402Z,101690.09
2023-07-09T09:51:46.417Z,101703.94
2023-07-09T09:54:19.237Z,101689.00
2023-07-09T09:56:45.960Z,101689.03
2023-07-09T09:59:20.075Z,101687.09
2023-07-09T10:01:46.930Z,101683.78
2023-07-09T10:04:19.354Z,101679.91
2023-07-09T10:06:49.776Z,101680.72
2023-07-09T10:09:30.103Z,101681.25
2023-07-09T10:12:04.572Z,101682.38
2023-07-09T10:14:38.890Z,101690.69
2023-07-09T10:17:16.045Z,101685.41
2023-07-09T10:19:58.027Z,101689.56
2023-07-09T10:22:41.569Z,101700.84
2023-07-09T10:25:21.305Z,101699.22
2023-07-09T10:28:05.033Z,101697.00
2023-07-09T10:30:42.733Z,101698.34
2023-07-09T10:33:11.797Z,101702.44
2023-07-09T10:35:43.567Z,101696.34
2023-07-09T10:38:30.312Z,101701.13
2023-07-09T10:41:06.464Z,101694.44
2023-07-09T10:43:39.576Z,101689.97
2023-07-09T10:46:12.769Z,101688.75
2023-07-09T10:48:43.501Z,101691.50
2023-07-09T10:51:18.239Z,101690.78
2023-07-09T10:53:49.289Z,101686.34
2023-07-09T10:56:18.154Z,101690.50
2023-07-09T10:58:51.214Z,101686.19
2023-07-09T11:01:22.441Z,101679.94
2023-07-09T11:03:51.735Z,101679.16
2023-07-09T11:06:25.198Z,101678.19
2023-07-09T11:08:56.534Z,101682.56
2023-07-09T11:11:41.412Z,101682.59
2023-07-09T11:14:19.082Z,101675.25
2023-07-09T11:16:45.829Z,101667.47
2023-07-09T11:19:17.650Z,101662.81
2023-07-09T11:21:59.332Z,101668.22
2023-07-09T11:24:32.377Z,101661.53
2023-07-09T11:26:58.961Z,101659.53
2023-07-09T11:29:25.499Z,101659.94
2023-07-09T11:31:52.142Z,101663.41
2023-07-09T11:34:21.105Z,101653.84
2023-07-09T11:36:51.457Z,101647.84
2023-07-09T11:39:21.139Z,101650.44
2023-07-09T11:41:47.822Z,101654.53
2023-07-09T11:44:18.022Z,101644.84
2023-07-09T11:46:55.069Z,101642.50
2023-07-09T11:49:26.338Z,101639.13
2023-07-09T11:51:58.374Z,101647.97
2023-07-09T11:54:24.972Z,101642.84
2023-07-09T11:56:56.583Z,101636.59
2023-07-09T11:59:23.440Z,101633.84
2023-07-09T12:01:51.874Z,101631.97
2023-07-09T12:04:19.855Z,101632.63
2023-07-09T12:06:47.592Z,101637.75
2023-07-09T12:09:18.433Z,101632.69
2023-07-09T12:11:46.671Z,101633.09
2023-07-09T12:14:16.277Z,101630.16
2023-07-09T12:16:45.202Z,101626.31
2023-07-09T12:19:13.470Z,101626.75
2023-07-09T12:21:43.618Z,101617.56
2023-07-09T12:24:20.224Z,101620.38
2023-07-09T12:26:49.268Z,101619.19
2023-07-09T12:29:16.108Z,101612.44
2023-07-09T12:31:42.710Z,101613.41
2023-07-09T12:34:13.726Z,101608.88
2023-07-09T12:36:45.307Z,101601.72
2023-07-09T12:39:13.278Z,101596.53
2023-07-09T12:41:43.023Z,101596.97
2023-07-09T12:44:17.616Z,101604.47
2023-07-09T12:46:45.886Z,101603.22
2023-07-09T12:49:22.366Z,101594.25
2023-07-09T12:51:49.036Z,101598.03
2023-07-09T12:54:17.490Z,101592.00
2023-07-09T12:56:45.446Z,101589.09
2023-07-09T12:59:20.756Z,101586.00
2023-07-09T13:01:55.752Z,101593.94
2023-07-09T13:04:28.279Z,101580.00
2023-07-09T13:06:54.856Z,101591.69
2023-07-09T13:09:22.741Z,101588.75
2023-07-09T13:11:51.697Z,101596.53
2023-07-09T13:14:21.751Z,101585.59
2023-07-09T13:16:49.079Z,101572.59
2023-07-09T13:19:15.684Z,101578.03
2023-07-09T13:21:42.823Z,101575.97
2023-07-09T13:24:20.329Z,101581.88
2023-07-09T13:26:46.900Z,101593.09
2023-07-09T13:29:17.060Z,101587.50
2023-07-09T13:31:44.625Z,101586.22
2023-07-09T13:34:19.727Z,101589.84
2023-07-09T13:36:46.619Z,101579.50
2023-07-09T13:39:14.337Z,101578.56
2023-07-09T13:41:43.231Z,101589.00
2023-07-09T13:44:13.260Z,101581.81
2023-07-09T13:46:41.264Z,101580.22
2023-07-09T13:49:10.499Z,101583.84
2023-07-09T13:51:37.372Z,101582.38
2023-07-09T13:54:14.277Z,101586.09
2023-07-09T13:56:41.189Z,101576.25
2023-07-09T13:59:14.127Z,101577.59
2023-07-09T14:01:42.476Z,101567.03
2023-07-09T14:04:10.460Z,101575.44
2023-07-09T14:06:37.086Z,101570.13
2023-07-09T14:09:03.735Z,101559.66
2023-07-09T14:11:30.993Z,101553.34
2023-07-09T14:13:57.607Z,101547.47
2023-07-09T14:16:24.225Z,101545.59
2023-07-09T14:18:52.215Z,101542.50
2023-07-09T14:21:24.486Z,101539.25
2023-07-09T14:23:51.111Z,101526.19
2023-07-09T14:26:17.745Z,101523.94
2023-07-09T14:28:44.338Z,101511.53
2023-07-09T14:31:20.742Z,101497.75
2023-07-09T14:33:47.344Z,101500.75
2023-07-09T14:36:15.563Z,101497.19
2023-07-09T14:38:42.124Z,101495.19
2023-07-09T14:41:21.984Z,101497.91
2023-07-09T14:43:49.404Z,101501.72
2023-07-09T14:46:16.043Z,101507.28
2023-07-09T14:48:42.654Z,101504.59
2023-07-09T14:51:15.959Z,101496.16
2023-07-09T14:53:42.952Z,101496.00
2023-07-09T14:56:11.187Z,101494.22
2023-07-09T14:58:39.047Z,101499.53
2023-07-09T15:01:05.853Z,101500.75
2023-07-09T15:03:32.609Z,101503.59
2023-07-09T15:05:59.191Z,101500.44
2023-07-09T15:08:27.428Z,101493.25
2023-07-09T15:10:55.793Z,101491.44
2023-07-09T15:13:29.869Z,101498.09
2023-07-09T15:15:56.533Z,101496.22
2023-07-09T15:18:23.113Z,101491.00
2023-07-09T15:20:53.866Z,101474.56
2023-07-09T15:23:20.759Z,101454.81
2023-07-09T15:25:49.574Z,101458.97
2023-07-09T15:28:16.255Z,101454.59
2023-07-09T15:30:42.912Z,101458.31
2023-07-09T15:33:15.178Z,101466.66
2023-07-09T15:35:42.303Z,101469.22
2023-07-09T15:38:25.949Z,101446.38
2023-07-09T15:40:53.988Z,101448.78
2023-07-09T15:43:20.689Z,101458.69
2023-07-09T15:45:49.672Z,101455.97
2023-07-09T15:48:24.474Z,101452.63
2023-07-09T15:50:51.180Z,101441.25
2023-07-09T15:53:18.445Z,101440.97
2023-07-09T15:55:45.116Z,101460.16
2023-07-09T15:58:19.560Z,101447.16
2023-07-09T16:00:46.187Z,101449.44
2023-07-09T16:03:21.185Z,101455.00
2023-07-09T16:05:48.374Z,101456.13
2023-07-09T16:08:14.956Z,101455.59
2023-07-09T16:10:42.053Z,101456.16
2023-07-09T16:13:18.959Z,101441.81
2023-07-09T16:15:47.742Z,101454.22
2023-07-09T16:18:14.780Z,101449.78
2023-07-09T16:20:41.352Z,101444.81
2023-07-09T16:23:15.199Z,101450.34
2023-07-09T16:25:41.843Z,101443.25
2023-07-09T16:28:12.000Z,101441.84
2023-07-09T16:30:38.646Z,101438.81
2023-07-09T16:33:06.573Z,101439.63
2023-07-09T16:35:33.207Z,101447.13
2023-07-09T16:38:00.182Z,101440.19
2023-07-09T16:40:28.572Z,101438.00
2023-07-09T16:42:56.524Z,101428.88
2023-07-09T16:45:25.100Z,101421.63
2023-07-09T16:47:51.769Z,101421.94
2023-07-09T16:50:22.057Z,101423.88
2023-07-09T16:52:50.388Z,101466.59
2023-07-09T16:55:19.600Z,101478.47
2023-07-09T16:57:50.142Z,101485.88
2023-07-09T17:00:36.283Z,101503.25
2023-07-09T17:03:06.025Z,101512.69
2023-07-09T17:05:34.196Z,101504.78
2023-07-09T17:08:00.762Z,101543.34
2023-07-09T17:10:27.381Z,101551.97
2023-07-09T17:12:56.816Z,101548.78
2023-07-09T17:15:26.341Z,101555.66
2023-07-09T17:17:54.396Z,101538.38
2023-07-09T17:20:22.478Z,101554.56
2023-07-09T17:22:52.676Z,101545.31
2023-07-09T17:25:28.199Z,101548.97
2023-07-09T17:27:55.569Z,101555.31
2023-07-09T17:30:22.132Z,101558.44
2023-07-09T17:32:48.893Z,101548.97
2023-07-09T17:35:16.231Z,101551.56
2023-07-09T17:37:49.258Z,101568.28
2023-07-09T17:42:53.070Z,101575.16
2023-07-09T17:45:19.985Z,101567.66
2023-07-09T17:47:46.612Z,101590.72
2023-07-09T17:50:15.135Z,101573.19
2023-07-09T17:52:43.779Z,101577.69
2023-07-09T17:55:12.601Z,101616.38
2023-07-09T17:57:42.388Z,101632.00
2023-07-09T18:00:19.540Z,101693.59
2023-07-09T18:02:51.375Z,101892.75
2023-07-09T18:05:23.455Z,101946.41
2023-07-09T18:07:50.049Z,101949.66
2023-07-09T18:10:16.812Z,101947.28
2023-07-09T18:12:44.809Z,101965.59
2023-07-09T18:15:19.047Z,101966.31
2023-07-09T18:17:45.759Z,101967.63
2023-07-09T18:20:16.276Z,101953.09
2023-07-09T18:22:42.905Z,101950.72
2023-07-09T18:25:09.773Z,101955.97
2023-07-09T18:27:39.257Z,101939.56
2023-07-09T18:30:15.666Z,101947.31
2023-07-09T18:32:46.536Z,101949.16
2023-07-09T18:35:19.380Z,101932.75
2023-07-09T18:37:46.041Z,101932.78
2023-07-09T18:40:13.722Z,101921.50
2023-07-09T18:42:40.316Z,101910.00
2023-07-09T18:45:13.559Z,101878.56
2023-07-09T18:47:40.183Z,101861.38
2023-07-09T18:50:09.116Z,101848.38
2023-07-09T18:52:35.701Z,101832.25
2023-07-09T18:55:02.297Z,101819.81
2023-07-09T18:57:28.860Z,101804.34
2023-07-09T18:59:55.420Z,101774.94
2023-07-09T19:02:25.275Z,101761.06
2023-07-09T19:04:52.530Z,101754.50
2023-07-09T19:07:21.583Z,101742.09
2023-07-09T19:09:49.071Z,101744.75
2023-07-09T19:12:15.869Z,101736.63
2023-07-09T19:14:43.005Z,101721.25
2023-07-09T19:17:13.416Z,101707.44
2023-07-09T19:19:41.899Z,101696.56
2023-07-09T19:22:09.791Z,101703.16
2023-07-09T19:24:36.383Z,101693.03
2023-07-09T19:27:03.198Z,101699.91
2023-07-09T19:29:29.765Z,101710.25
2023-07-09T19:31:59.850Z,101710.28
2023-07-09T19:34:28.711Z,101703.09
2023-07-09T19:36:58.398Z,101696.13
2023-07-09T19:39:27.222Z,101680.47
2023-07-09T19:41:55.296Z,101682.19
2023-07-09T19:44:23.019Z,101679.25
2023-07-09T19:46:49.767Z,101682.06
2023-07-09T19:49:16.431Z,101691.66
2023-07-09T19:51:43.007Z,101698.72
2023-07-09T19:54:15.926Z,101707.72
2023-07-09T19:56:43.575Z,101705.13
2023-07-09T19:59:10.522Z,101710.25
2023-07-09T20:01:37.239Z,101701.59
2023-07-09T20:04:04.170Z,101685.47
2023-07-09T20:06:31.325Z,101671.50
2023-07-09T20:08:58.025Z,101666.00
2023-07-09T20:11:26.472Z,101667.59
2023-07-09T20:13:54.295Z,101665.06
2023-07-09T20:16:24.397Z,101665.81
2023-07-09T20:18:52.211Z,101658.06
2023-07-09T20:21:20.511Z,101654.75
2023-07-09T20:23:47.089Z,101657.78
2023-07-09T20:26:13.728Z,101665.59
2023-07-09T20:28:41.724Z,101670.69
2023-07-09T20:31:15.915Z,101676.06
2023-07-09T20:33:42.479Z,101683.13
2023-07-09T20:36:09.139Z,101682.44
2023-07-09T20:38:36.693Z,101693.69
2023-07-09T20:41:04.260Z,101689.06
2023-07-09T20:43:37.025Z,101680.19
2023-07-09T20:46:05.161Z,101679.66
2023-07-09T20:48:31.998Z,101679.00
2023-07-09T20:50:58.584Z,101670.84
2023-07-09T20:53:25.716Z,101661.34
2023-07-09T20:55:54.803Z,101667.03
2023-07-09T20:58:22.420Z,101662.06
2023-07-09T21:00:50.278Z,101654.22
2023-07-09T21:03:20.606Z,101661.50
2023-07-09T21:05:48.946Z,101656.09
2023-07-09T21:08:20.370Z,101649.03
2023-07-09T21:10:48.289Z,101649.66
2023-07-09T21:13:17.484Z,101658.38
2023-07-09T21:15:44.491Z,101659.44
2023-07-09T21:18:15.946Z,101654.41
2023-07-09T21:20:44.822Z,101655.28
2023-07-09T21:23:14.273Z,101649.00
2023-07-09T21:25:40.845Z,101645.38
2023-07-09T21:28:07.409Z,101647.28
2023-07-09T21:30:34.058Z,101645.88
2023-07-09T21:33:00.724Z,101646.16
2023-07-09T21:35:27.785Z,101648.19
2023-07-09T21:37:57.761Z,101652.97
2023-07-09T21:40:30.545Z,101639.06
2023-07-09T21:42:58.998Z,101647.44
2023-07-09T21:45:30.573Z,101639.31
2023-07-09T21:47:58.782Z,101639.34
2023-07-09T21:50:25.391Z,101637.81
2023-07-09T21:52:51.964Z,101625.47
2023-07-09T21:55:21.740Z,101614.34
2023-07-09T21:57:49.071Z,101604.72
2023-07-09T22:00:17.826Z,101603.31
2023-07-09T22:02:46.467Z,101613.75
2023-07-09T22:05:15.465Z,101608.75
2023-07-09T22:07:41.923Z,101611.94
2023-07-09T22:10:10.786Z,101611.03
2023-07-09T22:12:39.019Z,101614.97
2023-07-09T22:15:14.724Z,101618.69
2023-07-09T22:17:41.335Z,101634.88
2023-07-09T22:20:08.833Z,101624.78
2023-07-09T22:22:35.500Z,101627.56
2023-07-09T22:25:02.107Z,101628.00
2023-07-09T22:27:28.722Z,101626.06
2023-07-09T22:29:56.643Z,101626.13
2023-07-09T22:32:25.867Z,101637.50
2023-07-09T22:35:00.033Z,101643.25
2023-07-09T22:37:26.654Z,101645.41
2023-07-09T22:39:53.238Z,101642.75
2023-07-09T22:42:19.804Z,101648.69
2023-07-09T22:44:46.549Z,101652.53
2023-07-09T22:47:17.919Z,101652.63
2023-07-09T22:49:44.587Z,101670.19
2023-07-09T22:52:11.715Z,101687.25
2023-07-09T22:54:38.482Z,101689.28
2023-07-09T22:57:05.968Z,101701.72
2023-07-09T22:59:32.706Z,101695.91
2023-07-09T23:01:59.527Z,101701.34
2023-07-09T23:04:27.671Z,101703.38
2023-07-09T23:06:54.382Z,101685.16
2023-07-09T23:09:20.950Z,101679.91
2023-07-09T23:11:47.685Z,101668.81
2023-07-09T23:14:18.370Z,101675.69
2023-07-09T23:16:45.577Z,101671.84
2023-07-09T23:19:18.323Z,101654.78
2023-07-09T23:21:47.027Z,101635.00
2023-07-09T23:24:13.589Z,101627.06
2023-07-09T23:26:43.958Z,101610.19
2023-07-09T23:29:10.997Z,101592.78
2023-07-09T23:31:37.639Z,101586.34
2023-07-09T23:34:09.434Z,101591.09
2023-07-09T23:36:36.129Z,101601.94
2023-07-09T23:39:04.343Z,101589.50
2023-07-09T23:41:34.112Z,101599.56
2023-07-09T23:44:03.380Z,101612.41
2023-07-09T23:46:31.535Z,101610.19
2023-07-09T23:49:08.531Z,101628.44
2023-07-09T23:51:36.685Z,101638.81
2023-07-09T23:54:05.467Z,101652.69
2023-07-09T23:56:34.616Z,101686.00
2023-07-09T23:59:02.639Z,101708.00
